Time;durP1;ratioP1;P1;durP2;ratioP2;P2;SDS_P1;SDS_P2;PMS_P1;PMS_P2;Temp;Humidity;BMP_temperature;BMP_pressure;BME280_temperature;BME280_humidity;BME280_pressure;Samples;Min_cycle;Max_cycle;Signal;HPM_P1;HPM_P2
2024/01/02 00:00:27;;;;;;;;;;;;;;;7.41;55.25;97387.78;5083830;28;20285;-60
2024/01/02 00:03:16;;;;;;;;;;;;;;;7.46;54.88;97384.16;5075492;28;20425;-59
2024/01/02 00:06:06;;;;;;;;;;;;;;;7.01;55.83;97381.31;5075745;28;20007;-60
2024/01/02 00:08:54;;;;;;;;;;;;;;;7.07;55.94;97372.00;5077844;28;20405;-60
2024/01/02 00:11:42;;;;;;;;;;;;;;;7.17;55.76;97365.59;5088803;27;20431;-60
2024/01/02 00:14:30;;;;;;;;;;;;;;;6.70;56.61;97352.19;5114280;27;19934;-60
2024/01/02 00:17:18;;;;;;;;;;;;;;;7.01;56.67;97352.41;5106275;27;20003;-60
2024/01/02 00:20:07;;;;;;;;;;;;;;;7.06;56.65;97349.59;5090452;28;19927;-60
2024/01/02 00:23:00;;;;;;;;;;;;;;;6.97;56.84;97346.00;5096939;27;19920;-60
2024/01/02 00:25:48;;;;;;;;;;;;;;;6.95;57.00;97334.69;5097249;27;20030;-60
2024/01/02 00:28:36;;;;;;;;;;;;;;;7.09;56.58;97335.50;5106451;27;19919;-60
2024/01/02 00:31:24;;;;;;;;;;;;;;;6.91;56.98;97327.50;5073370;28;19920;-59
2024/01/02 00:34:13;;;;;;;;;;;;;;;6.91;57.37;97324.81;5094482;28;19932;-60
2024/01/02 00:37:01;;;;;;;;;;;;;;;6.80;57.76;97319.59;5104372;28;19964;-60
2024/01/02 00:39:50;;;;;;;;;;;;;;;6.74;58.00;97318.13;5100969;27;19969;-60
2024/01/02 00:42:38;;;;;;;;;;;;;;;6.97;57.62;97312.78;5094808;28;19928;-59
2024/01/02 00:45:30;;;;;;;;;;;;;;;6.83;58.30;97315.53;5099108;28;20134;-60
2024/01/02 00:48:18;;;;;;;;;;;;;;;6.69;58.98;97318.22;5098259;27;19920;-60
2024/01/02 00:51:06;;;;;;;;;;;;;;;6.87;58.34;97303.03;5091935;28;19939;-61
2024/01/02 00:53:54;;;;;;;;;;;;;;;6.86;58.62;97300.59;5099718;28;20283;-60
2024/01/02 00:56:44;;;;;;;;;;;;;;;6.89;58.11;97297.31;5094784;28;20280;-59
2024/01/02 00:59:33;;;;;;;;;;;;;;;6.93;58.54;97291.00;5108943;28;19924;-60
2024/01/02 01:02:22;;;;;;;;;;;;;;;7.04;58.18;97291.59;5114407;27;20364;-60
2024/01/02 01:05:10;;;;;;;;;;;;;;;6.92;59.04;97288.59;5093922;28;19920;-60
2024/01/02 01:07:58;;;;;;;;;;;;;;;6.82;59.45;97285.03;5109234;28;19967;-60
2024/01/02 01:10:46;;;;;;;;;;;;;;;6.99;58.69;97289.00;5081698;28;20052;-60
2024/01/02 01:13:36;;;;;;;;;;;;;;;6.84;59.18;97284.72;5098356;28;20253;-60
2024/01/02 01:16:24;;;;;;;;;;;;;;;6.64;60.56;97283.22;5105054;27;19927;-59
2024/01/02 01:19:12;;;;;;;;;;;;;;;6.80;59.73;97276.41;5097778;27;19919;-60
2024/01/02 01:22:00;;;;;;;;;;;;;;;6.95;59.33;97271.78;5107888;27;20057;-60
2024/01/02 01:24:49;;;;;;;;;;;;;;;6.92;60.17;97272.38;5124945;27;19986;-60
2024/01/02 01:27:37;;;;;;;;;;;;;;;6.95;60.12;97266.41;5113087;27;19934;-60
2024/01/02 01:30:26;;;;;;;;;;;;;;;6.77;60.50;97260.84;5094418;27;20390;-60
2024/01/02 01:33:15;;;;;;;;;;;;;;;6.75;60.49;97254.91;5103124;27;20292;-60
2024/01/02 01:36:03;;;;;;;;;;;;;;;6.74;60.96;97250.63;5105156;27;19923;-60
2024/01/02 01:38:52;;;;;;;;;;;;;;;6.91;60.30;97233.78;5101129;28;19920;-60
2024/01/02 01:41:39;;;;;;;;;;;;;;;7.01;60.17;97232.78;5104339;27;19919;-60
2024/01/02 01:44:28;;;;;;;;;;;;;;;6.99;59.73;97229.59;5103336;27;20009;-60
2024/01/02 01:47:17;;;;;;;;;;;;;;;6.89;60.70;97236.00;5106423;27;19927;-60
2024/01/02 01:50:05;;;;;;;;;;;;;;;6.98;60.28;97236.88;5106737;28;19924;-60
2024/01/02 01:52:54;;;;;;;;;;;;;;;6.94;60.51;97225.09;5109177;27;20050;-60
2024/01/02 01:55:45;;;;;;;;;;;;;;;6.98;60.20;97222.59;5092326;28;20376;-60
2024/01/02 01:58:33;;;;;;;;;;;;;;;7.04;60.03;97226.78;5098289;27;19934;-60
2024/01/02 02:01:21;;;;;;;;;;;;;;;7.11;60.46;97227.13;5117569;27;20413;-60
2024/01/02 02:04:11;;;;;;;;;;;;;;;7.15;60.35;97224.63;5082905;28;19942;-60
2024/01/02 02:06:59;;;;;;;;;;;;;;;7.20;59.52;97222.63;5103426;27;20363;-60
2024/01/02 02:09:47;;;;;;;;;;;;;;;7.21;59.76;97226.13;5099863;27;19939;-60
2024/01/02 02:12:36;;;;;;;;;;;;;;;7.11;59.92;97221.75;5102767;28;19932;-60
2024/01/02 02:15:24;;;;;;;;;;;;;;;7.13;60.50;97216.81;5100554;28;19920;-60
2024/01/02 02:18:12;;;;;;;;;;;;;;;7.14;59.98;97215.75;5095320;27;19920;-60
2024/01/02 02:21:02;;;;;;;;;;;;;;;7.13;60.55;97216.03;5083616;28;19927;-60
2024/01/02 02:23:51;;;;;;;;;;;;;;;7.10;60.56;97206.63;5087134;28;20036;-60
2024/01/02 02:26:39;;;;;;;;;;;;;;;7.09;60.86;97203.16;5080641;28;19926;-60
2024/01/02 02:29:27;;;;;;;;;;;;;;;6.90;61.13;97204.41;5106879;28;19932;-60
2024/01/02 02:32:15;;;;;;;;;;;;;;;7.06;60.66;97203.75;5098405;27;19995;-60
2024/01/02 02:35:04;;;;;;;;;;;;;;;7.00;60.90;97196.06;5098766;27;19932;-60
2024/01/02 02:37:53;;;;;;;;;;;;;;;7.08;60.84;97184.53;5103841;27;20330;-60
2024/01/02 02:40:42;;;;;;;;;;;;;;;6.75;61.86;97194.72;5105269;28;19920;-60
2024/01/02 02:43:30;;;;;;;;;;;;;;;6.64;62.88;97190.66;5120850;27;20364;-60
2024/01/02 02:46:18;;;;;;;;;;;;;;;6.39;64.33;97179.31;5101731;27;20557;-60
2024/01/02 02:49:06;;;;;;;;;;;;;;;6.68;63.54;97180.84;5104150;27;20377;-60
2024/01/02 02:51:55;;;;;;;;;;;;;;;6.79;63.63;97177.63;5106785;27;20014;-60
2024/01/02 02:54:43;;;;;;;;;;;;;;;6.75;63.64;97165.03;5099478;27;19924;-60
2024/01/02 02:57:32;;;;;;;;;;;;;;;6.88;63.37;97169.59;5100030;27;20265;-60
2024/01/02 03:00:21;;;;;;;;;;;;;;;6.51;64.42;97162.59;5106933;28;19919;-60
2024/01/02 03:03:09;;;;;;;;;;;;;;;6.61;64.56;97153.50;5088654;28;19919;-60
2024/01/02 03:05:57;;;;;;;;;;;;;;;6.76;64.89;97148.53;5094149;27;19924;-60
2024/01/02 03:08:46;;;;;;;;;;;;;;;6.90;64.37;97145.78;5100290;27;20005;-60
2024/01/02 03:11:34;;;;;;;;;;;;;;;6.50;66.31;97131.34;5100726;28;19919;-60
2024/01/02 03:14:23;;;;;;;;;;;;;;;6.81;65.64;97126.00;5100035;27;20053;-59
2024/01/02 03:17:12;;;;;;;;;;;;;;;6.86;65.23;97123.19;5092420;27;19920;-60
2024/01/02 03:20:00;;;;;;;;;;;;;;;6.77;65.87;97114.25;5096888;27;20042;-60
2024/01/02 03:22:48;;;;;;;;;;;;;;;6.80;65.68;97114.41;5099155;27;19923;-60
2024/01/02 03:25:37;;;;;;;;;;;;;;;6.80;66.55;97106.31;5091661;28;19928;-61
2024/01/02 03:28:28;;;;;;;;;;;;;;;6.73;66.58;97092.47;5104442;28;19920;-60
2024/01/02 03:31:17;;;;;;;;;;;;;;;6.73;67.04;97092.47;5100323;27;20364;-60
2024/01/02 03:34:05;;;;;;;;;;;;;;;6.77;67.34;97085.34;5101945;27;20629;-60
2024/01/02 03:36:53;;;;;;;;;;;;;;;6.63;68.19;97075.72;5103802;28;19919;-60
2024/01/02 03:39:41;;;;;;;;;;;;;;;6.64;68.22;97067.31;5105457;28;20357;-60
2024/01/02 03:42:30;;;;;;;;;;;;;;;6.70;68.38;97057.19;5098680;27;19928;-62
2024/01/02 03:45:18;;;;;;;;;;;;;;;6.74;68.38;97045.47;5098713;28;19931;-60
2024/01/02 03:48:07;;;;;;;;;;;;;;;6.56;69.17;97043.75;5095454;28;19966;-60
2024/01/02 03:50:56;;;;;;;;;;;;;;;6.48;69.50;97036.38;5099407;28;19975;-60
2024/01/02 03:53:44;;;;;;;;;;;;;;;6.33;70.90;97028.63;5104612;28;19943;-61
2024/01/02 03:56:34;;;;;;;;;;;;;;;6.53;69.87;97022.78;5098523;27;19920;-60
2024/01/02 03:59:23;;;;;;;;;;;;;;;6.53;70.05;97022.78;5114225;27;19923;-60
2024/01/02 04:02:11;;;;;;;;;;;;;;;6.59;69.95;97015.34;5103159;27;19943;-61
2024/01/02 04:05:00;;;;;;;;;;;;;;;6.68;70.57;97008.91;5098917;27;19920;-61
2024/01/02 04:07:49;;;;;;;;;;;;;;;6.74;70.07;97001.47;5100918;28;19920;-60
2024/01/02 04:10:37;;;;;;;;;;;;;;;6.60;69.87;96995.34;5105113;27;20061;-60
2024/01/02 04:13:26;;;;;;;;;;;;;;;6.62;70.79;96996.66;5105586;28;20304;-60
2024/01/02 04:16:14;;;;;;;;;;;;;;;6.50;71.62;96991.03;5096584;28;19927;-61
2024/01/02 04:19:02;;;;;;;;;;;;;;;6.48;71.89;96982.41;5104564;27;20028;-60
2024/01/02 04:21:52;;;;;;;;;;;;;;;6.55;71.68;96977.38;5099303;27;19934;-61
2024/01/02 04:24:41;;;;;;;;;;;;;;;6.55;71.62;96977.38;5103819;28;19920;-60
2024/01/02 04:27:28;;;;;;;;;;;;;;;6.47;72.25;96975.44;5109078;28;19982;-60
2024/01/02 04:30:18;;;;;;;;;;;;;;;6.20;73.71;96963.66;5107597;28;19924;-60
2024/01/02 04:33:06;;;;;;;;;;;;;;;6.18;73.19;96963.19;5100576;28;19920;-60
2024/01/02 04:35:54;;;;;;;;;;;;;;;6.29;73.12;96952.94;5107345;28;19920;-60
2024/01/02 04:38:44;;;;;;;;;;;;;;;6.45;73.08;96945.28;5098287;28;19930;-59
2024/01/02 04:41:34;;;;;;;;;;;;;;;6.36;73.21;96949.81;5099438;28;20280;-60
2024/01/02 04:44:22;;;;;;;;;;;;;;;6.29;73.77;96939.47;5103482;28;20304;-62
2024/01/02 04:47:13;;;;;;;;;;;;;;;6.25;73.96;96931.16;5097695;28;19943;-60
2024/01/02 04:50:02;;;;;;;;;;;;;;;6.15;74.87;96925.22;5095652;28;20269;-60
2024/01/02 04:52:50;;;;;;;;;;;;;;;6.25;73.78;96915.00;5091171;28;19932;-60
2024/01/02 04:55:39;;;;;;;;;;;;;;;6.24;74.28;96908.00;5102270;28;19924;-60
2024/01/02 04:58:27;;;;;;;;;;;;;;;6.22;74.40;96899.41;5103037;28;19939;-60
2024/01/02 05:01:15;;;;;;;;;;;;;;;6.14;74.70;96896.66;5097793;28;19931;-60
2024/01/02 05:04:04;;;;;;;;;;;;;;;6.09;75.38;96880.63;5100749;28;20267;-61
2024/01/02 05:06:52;;;;;;;;;;;;;;;6.22;74.92;96874.34;5098564;28;19935;-62
2024/01/02 05:09:40;;;;;;;;;;;;;;;6.37;74.75;96873.97;5108896;28;19942;-62
2024/01/02 05:12:29;;;;;;;;;;;;;;;6.50;74.39;96872.28;5099261;28;19928;-62
2024/01/02 05:15:18;;;;;;;;;;;;;;;6.27;75.39;96856.13;5109655;28;19920;-63
2024/01/02 05:18:07;;;;;;;;;;;;;;;6.17;75.55;96847.50;5094297;28;19931;-62
2024/01/02 05:20:55;;;;;;;;;;;;;;;6.24;75.85;96829.00;5095167;28;19924;-62
2024/01/02 05:23:43;;;;;;;;;;;;;;;6.47;75.10;96819.72;5096550;28;19940;-62
2024/01/02 05:26:31;;;;;;;;;;;;;;;6.16;75.59;96800.84;5102998;28;19920;-61
2024/01/02 05:29:21;;;;;;;;;;;;;;;6.30;75.75;96793.47;5102519;28;20443;-62
2024/01/02 05:32:09;;;;;;;;;;;;;;;6.40;75.15;96794.31;5101486;28;20019;-62
2024/01/02 05:34:57;;;;;;;;;;;;;;;6.39;74.51;96804.31;5109942;28;19951;-62
2024/01/02 05:37:46;;;;;;;;;;;;;;;6.65;74.59;96795.50;5094984;28;20397;-62
2024/01/02 05:40:34;;;;;;;;;;;;;;;6.71;73.86;96794.25;5094054;28;19927;-62
2024/01/02 05:43:21;;;;;;;;;;;;;;;6.47;74.73;96794.66;5102654;28;19920;-62
2024/01/02 05:46:11;;;;;;;;;;;;;;;6.29;74.33;96791.91;5104032;28;19924;-63
2024/01/02 05:49:01;;;;;;;;;;;;;;;6.21;75.62;96789.94;5104892;28;19920;-62
2024/01/02 05:51:50;;;;;;;;;;;;;;;6.71;73.86;96764.56;5108046;28;19999;-62
2024/01/02 05:54:38;;;;;;;;;;;;;;;6.62;74.45;96761.84;5105539;28;19930;-62
2024/01/02 05:57:26;;;;;;;;;;;;;;;6.49;73.87;96758.16;5103688;28;19935;-62
2024/01/02 06:00:15;;;;;;;;;;;;;;;6.41;75.24;96740.03;5103252;28;19920;-62
2024/01/02 06:03:05;;;;;;;;;;;;;;;6.55;74.09;96734.50;5108382;27;19967;-62
2024/01/02 06:05:53;;;;;;;;;;;;;;;6.38;74.67;96739.88;5103554;27;19920;-62
2024/01/02 06:08:45;;;;;;;;;;;;;;;6.67;73.76;96715.84;5096518;28;20030;-62
2024/01/02 06:11:33;;;;;;;;;;;;;;;6.66;74.11;96719.66;5104105;28;19939;-62
2024/01/02 06:14:21;;;;;;;;;;;;;;;6.43;75.38;96708.16;5101143;28;20014;-62
2024/01/02 06:17:09;;;;;;;;;;;;;;;6.24;74.77;96708.41;5099942;27;20428;-61
2024/01/02 06:19:58;;;;;;;;;;;;;;;6.39;75.03;96699.13;5099701;28;19957;-62
2024/01/02 06:22:50;;;;;;;;;;;;;;;6.56;73.92;96704.53;5079722;28;19927;-62
2024/01/02 06:25:38;;;;;;;;;;;;;;;6.52;73.51;96703.56;5083735;28;19958;-62
2024/01/02 06:28:29;;;;;;;;;;;;;;;6.42;73.91;96703.06;5085842;28;20291;-62
2024/01/02 06:31:19;;;;;;;;;;;;;;;6.47;74.30;96706.41;5092200;28;19955;-62
2024/01/02 06:34:09;;;;;;;;;;;;;;;6.72;73.55;96696.78;5093437;28;19938;-62
2024/01/02 06:36:59;;;;;;;;;;;;;;;6.77;73.35;96683.13;5104622;27;20027;-62
2024/01/02 06:39:47;;;;;;;;;;;;;;;6.73;72.63;96687.56;5095483;28;19920;-62
2024/01/02 06:42:35;;;;;;;;;;;;;;;6.78;72.45;96690.13;5104270;28;20440;-62
2024/01/02 06:45:23;;;;;;;;;;;;;;;6.95;72.18;96689.34;5102064;27;19957;-61
2024/01/02 06:48:11;;;;;;;;;;;;;;;6.86;72.92;96679.63;5100445;27;19927;-62
2024/01/02 06:51:00;;;;;;;;;;;;;;;6.66;73.97;96679.16;5096906;28;20268;-62
2024/01/02 06:53:49;;;;;;;;;;;;;;;6.99;72.42;96692.19;5095000;27;19923;-61
2024/01/02 06:56:37;;;;;;;;;;;;;;;6.50;73.69;96688.81;5101937;27;20352;-61
2024/01/02 06:59:27;;;;;;;;;;;;;;;6.77;73.61;96691.25;5105218;28;19977;-62
2024/01/02 07:02:15;;;;;;;;;;;;;;;6.48;74.44;96686.41;5106225;27;20424;-62
2024/01/02 07:05:04;;;;;;;;;;;;;;;6.55;74.07;96702.97;5106034;28;19919;-62
2024/01/02 07:07:52;;;;;;;;;;;;;;;6.86;73.25;96674.25;5104772;27;19927;-61
2024/01/02 07:10:41;;;;;;;;;;;;;;;6.33;75.16;96667.97;5097402;27;20280;-61
2024/01/02 07:13:29;;;;;;;;;;;;;;;6.85;73.25;96669.97;5105856;28;19996;-62
2024/01/02 07:16:17;;;;;;;;;;;;;;;7.04;71.95;96665.84;5085718;28;19932;-61
2024/01/02 07:19:05;;;;;;;;;;;;;;;6.65;73.77;96661.34;5083591;28;19947;-60
2024/01/02 07:21:53;;;;;;;;;;;;;;;6.71;73.98;96630.44;5083988;28;19927;-61
2024/01/02 07:24:42;;;;;;;;;;;;;;;7.08;72.46;96653.28;5087672;28;19973;-61
2024/01/02 07:27:31;;;;;;;;;;;;;;;7.08;72.18;96641.66;5076586;28;20407;-61
2024/01/02 07:30:20;;;;;;;;;;;;;;;7.15;72.16;96636.59;5100048;27;19931;-61
2024/01/02 07:33:08;;;;;;;;;;;;;;;7.09;72.12;96643.28;5104511;27;19928;-61
2024/01/02 07:35:56;;;;;;;;;;;;;;;7.05;71.51;96632.31;5099549;28;19928;-59
2024/01/02 07:38:44;;;;;;;;;;;;;;;7.14;72.24;96628.78;5104345;27;20277;-60
2024/01/02 07:41:34;;;;;;;;;;;;;;;6.88;73.00;96621.53;5100385;27;19920;-61
2024/01/02 07:44:23;;;;;;;;;;;;;;;7.11;72.76;96632.94;5104701;28;19940;-61
2024/01/02 07:47:13;;;;;;;;;;;;;;;7.00;73.25;96605.47;5105934;28;19972;-61
2024/01/02 07:50:04;;;;;;;;;;;;;;;7.04;73.70;96611.03;5100872;28;20284;-61
2024/01/02 07:52:53;;;;;;;;;;;;;;;7.13;73.09;96609.09;5101500;27;20033;-61
2024/01/02 07:55:41;;;;;;;;;;;;;;;6.76;74.71;96588.97;5100352;27;20376;-61
2024/01/02 07:58:31;;;;;;;;;;;;;;;7.04;74.23;96603.72;5098188;27;19920;-61
2024/01/02 08:01:20;;;;;;;;;;;;;;;6.91;73.61;96587.69;5102343;28;19924;-61
2024/01/02 08:04:08;;;;;;;;;;;;;;;6.81;74.53;96583.41;5098030;27;19919;-61
2024/01/02 08:06:57;;;;;;;;;;;;;;;6.78;74.31;96576.75;5108616;28;19962;-60
2024/01/02 08:09:46;;;;;;;;;;;;;;;6.96;74.33;96590.22;5109413;27;19919;-60
2024/01/02 08:12:34;;;;;;;;;;;;;;;7.01;73.92;96571.16;5103752;27;19920;-60
2024/01/02 08:15:23;;;;;;;;;;;;;;;6.62;75.40;96564.84;5104146;27;19927;-60
2024/01/02 08:18:29;;;;;;;;;;;;;;;6.97;74.97;96571.00;5077946;28;19934;-61
2024/01/02 08:21:18;;;;;;;;;;;;;;;6.75;75.73;96585.47;5086027;28;19939;-60
2024/01/02 08:24:08;;;;;;;;;;;;;;;6.92;75.31;96575.78;5086295;28;19932;-61
2024/01/02 08:26:57;;;;;;;;;;;;;;;6.99;75.54;96559.91;5086737;28;19920;-60
2024/01/02 08:29:45;;;;;;;;;;;;;;;6.46;76.48;96574.53;5086498;28;20373;-61
2024/01/02 08:32:34;;;;;;;;;;;;;;;6.86;75.95;96569.75;5078664;28;19979;-59
2024/01/02 08:35:26;;;;;;;;;;;;;;;6.93;76.25;96569.28;5079387;28;19921;-59
2024/01/02 08:38:16;;;;;;;;;;;;;;;7.07;74.87;96578.75;5076177;28;19920;-59
2024/01/02 08:41:05;;;;;;;;;;;;;;;7.22;75.02;96582.06;5079039;28;19920;-59
2024/01/02 08:43:56;;;;;;;;;;;;;;;7.15;74.60;96577.19;5083995;28;21668;-59
2024/01/02 08:46:44;;;;;;;;;;;;;;;7.26;74.67;96578.41;5078480;28;20495;-59
2024/01/02 08:49:33;;;;;;;;;;;;;;;7.12;74.57;96580.50;5084623;28;19924;-60
2024/01/02 08:52:22;;;;;;;;;;;;;;;7.08;75.35;96574.16;5089335;28;19924;-59
2024/01/02 08:55:11;;;;;;;;;;;;;;;7.21;75.09;96570.47;5084459;28;20020;-60
2024/01/02 08:57:59;;;;;;;;;;;;;;;7.29;74.86;96576.97;5085227;28;19944;-61
2024/01/02 09:00:48;;;;;;;;;;;;;;;7.17;74.79;96569.53;5084729;28;19947;-59
2024/01/02 09:03:36;;;;;;;;;;;;;;;7.23;75.05;96570.16;5088128;28;19920;-61
2024/01/02 09:06:25;;;;;;;;;;;;;;;7.14;75.48;96567.50;5082010;28;20007;-61
2024/01/02 09:09:15;;;;;;;;;;;;;;;7.35;75.35;96565.69;5084761;28;20014;-59
2024/01/02 09:12:04;;;;;;;;;;;;;;;7.02;76.27;96568.13;5086060;28;19920;-59
2024/01/02 09:14:52;;;;;;;;;;;;;;;7.37;75.68;96569.97;5079306;28;20010;-60
2024/01/02 09:17:40;;;;;;;;;;;;;;;7.51;75.54;96565.94;5078411;28;19920;-60
2024/01/02 09:20:28;;;;;;;;;;;;;;;7.25;76.03;96563.31;5082092;28;20014;-59
2024/01/02 09:23:17;;;;;;;;;;;;;;;7.41;75.94;96560.09;5085712;28;20429;-59
2024/01/02 09:26:07;;;;;;;;;;;;;;;7.61;75.60;96552.03;5085648;28;19920;-60
2024/01/02 09:28:55;;;;;;;;;;;;;;;7.22;75.72;96557.78;5085896;28;19939;-60
2024/01/02 09:31:43;;;;;;;;;;;;;;;7.20;76.38;96568.91;5081312;28;19920;-60
2024/01/02 09:34:32;;;;;;;;;;;;;;;7.24;76.71;96572.53;5085340;28;19920;-59
2024/01/02 09:37:21;;;;;;;;;;;;;;;7.36;76.54;96569.19;5086503;28;19930;-59
2024/01/02 09:40:12;;;;;;;;;;;;;;;7.42;76.35;96562.47;5084072;28;19927;-59
2024/01/02 09:43:04;;;;;;;;;;;;;;;7.62;75.76;96558.28;5084545;28;19920;-60
2024/01/02 09:45:56;;;;;;;;;;;;;;;7.87;75.19;96567.34;5086490;28;19920;-59
2024/01/02 09:48:54;;;;;;;;;;;;;;;7.93;74.75;96570.66;5077685;28;19939;-59
2024/01/02 09:51:44;;;;;;;;;;;;;;;8.14;73.93;96568.78;5100995;27;20628;-58
2024/01/02 09:54:37;;;;;;;;;;;;;;;8.17;73.71;96572.75;5110752;28;19967;-59
2024/01/02 09:57:26;;;;;;;;;;;;;;;8.31;73.25;96566.00;5096764;28;20342;-59
2024/01/02 10:00:20;;;;;;;;;;;;;;;8.01;73.78;96562.50;5107922;27;20494;-59
2024/01/02 10:03:12;;;;;;;;;;;;;;;8.34;72.91;96567.22;5111029;28;19931;-59
2024/01/02 10:06:07;;;;;;;;;;;;;;;8.23;73.33;96569.53;5104004;27;19926;-59
2024/01/02 10:09:01;;;;;;;;;;;;;;;8.13;74.08;96559.88;5103437;27;19931;-60
2024/01/02 10:11:52;;;;;;;;;;;;;;;8.41;73.09;96551.28;5102629;27;19926;-60
2024/01/02 10:14:43;;;;;;;;;;;;;;;8.23;73.57;96553.31;5102069;27;19931;-59
2024/01/02 10:17:35;;;;;;;;;;;;;;;8.26;74.02;96541.84;5107254;28;19984;-59
2024/01/02 10:20:26;;;;;;;;;;;;;;;8.36;73.14;96533.34;5104158;28;19927;-58
2024/01/02 10:23:18;;;;;;;;;;;;;;;8.12;74.18;96533.16;5105072;27;20264;-59
2024/01/02 10:26:12;;;;;;;;;;;;;;;8.28;74.69;96545.00;5109870;28;20415;-59
2024/01/02 10:29:01;;;;;;;;;;;;;;;8.16;74.52;96538.72;5106394;28;19920;-60
2024/01/02 10:31:54;;;;;;;;;;;;;;;8.10;74.60;96540.84;5105321;27;19920;-59
2024/01/02 10:34:47;;;;;;;;;;;;;;;8.12;75.14;96536.66;5105097;28;20310;-59
2024/01/02 10:37:36;;;;;;;;;;;;;;;8.21;75.05;96542.03;5087210;27;19928;-59
2024/01/02 10:40:24;;;;;;;;;;;;;;;8.25;74.96;96542.94;5102976;28;19939;-59
2024/01/02 10:43:15;;;;;;;;;;;;;;;8.15;75.26;96537.94;5108605;28;20284;-59
2024/01/02 10:46:04;;;;;;;;;;;;;;;8.49;74.73;96550.44;5100698;27;19939;-59
2024/01/02 10:48:55;;;;;;;;;;;;;;;8.40;75.20;96547.00;5106354;27;19924;-59
2024/01/02 10:51:48;;;;;;;;;;;;;;;8.50;74.42;96545.81;5105711;28;19943;-59
2024/01/02 10:54:38;;;;;;;;;;;;;;;8.70;74.17;96545.00;5098787;27;20314;-60
2024/01/02 10:57:29;;;;;;;;;;;;;;;8.69;74.45;96535.31;5103049;28;20254;-60
2024/01/02 11:00:22;;;;;;;;;;;;;;;8.80;73.61;96531.06;5101978;27;19920;-60
2024/01/02 11:03:11;;;;;;;;;;;;;;;8.86;73.63;96537.06;5092835;28;20379;-60
2024/01/02 11:06:01;;;;;;;;;;;;;;;8.83;73.36;96530.38;5078470;28;20405;-60
2024/01/02 11:08:53;;;;;;;;;;;;;;;8.86;73.57;96537.06;5088698;28;20073;-59
2024/01/02 11:11:42;;;;;;;;;;;;;;;8.90;73.44;96527.16;5076782;28;20396;-59
2024/01/02 11:14:37;;;;;;;;;;;;;;;8.76;73.89;96522.00;5106424;27;19931;-60
2024/01/02 11:17:25;;;;;;;;;;;;;;;8.82;73.98;96525.31;5100570;27;19919;-59
2024/01/02 11:20:14;;;;;;;;;;;;;;;8.68;73.81;96516.66;5105161;28;19973;-60
2024/01/02 11:23:03;;;;;;;;;;;;;;;8.88;74.49;96500.38;5110921;28;19926;-59
2024/01/02 11:25:54;;;;;;;;;;;;;;;8.94;73.63;96517.22;5111755;28;19935;-59
2024/01/02 11:28:53;;;;;;;;;;;;;;;9.12;72.98;96502.38;5103557;27;19919;-59
2024/01/02 11:31:41;;;;;;;;;;;;;;;9.29;72.57;96495.16;5110778;27;19935;-59
2024/01/02 11:34:36;;;;;;;;;;;;;;;9.26;72.79;96496.63;5105543;27;19920;-59
2024/01/02 11:37:29;;;;;;;;;;;;;;;9.38;71.71;96487.72;5099912;27;19927;-59
2024/01/02 11:40:18;;;;;;;;;;;;;;;9.38;71.53;96487.72;5099324;27;20077;-59
2024/01/02 11:43:10;;;;;;;;;;;;;;;9.43;71.33;96482.88;5100894;28;19920;-59
2024/01/02 11:45:58;;;;;;;;;;;;;;;9.65;70.73;96480.84;5106641;27;20069;-59
2024/01/02 11:48:51;;;;;;;;;;;;;;;9.45;70.68;96471.69;5100422;27;20252;-59
2024/01/02 11:51:40;;;;;;;;;;;;;;;9.55;70.38;96475.88;5099843;28;19920;-59
2024/01/02 11:54:36;;;;;;;;;;;;;;;9.65;70.47;96459.16;5108959;27;19924;-59
2024/01/02 11:57:25;;;;;;;;;;;;;;;9.47;70.92;96458.56;5097837;27;19920;-59
2024/01/02 12:00:16;;;;;;;;;;;;;;;9.40;70.96;96459.16;5103830;27;19928;-59
2024/01/02 12:03:07;;;;;;;;;;;;;;;9.56;70.38;96444.91;5117156;27;20053;-59
2024/01/02 12:06:03;;;;;;;;;;;;;;;9.79;70.36;96446.00;5103037;27;20213;-59
2024/01/02 12:08:54;;;;;;;;;;;;;;;9.66;70.65;96444.44;5098662;27;20328;-59
2024/01/02 12:11:45;;;;;;;;;;;;;;;9.70;70.27;96437.22;5097057;28;20276;-59
2024/01/02 12:14:36;;;;;;;;;;;;;;;9.82;69.98;96448.03;5093945;28;19920;-60
2024/01/02 12:17:27;;;;;;;;;;;;;;;9.78;70.27;96441.72;5104372;27;20053;-59
2024/01/02 12:20:17;;;;;;;;;;;;;;;9.88;69.89;96435.81;5105038;28;19987;-59
2024/01/02 12:23:05;;;;;;;;;;;;;;;9.86;70.17;96427.25;5102676;27;20412;-59
2024/01/02 12:25:55;;;;;;;;;;;;;;;9.73;70.52;96433.81;5100075;28;19919;-59
2024/01/02 12:28:44;;;;;;;;;;;;;;;9.74;70.94;96429.97;5102022;28;19928;-59
2024/01/02 12:31:33;;;;;;;;;;;;;;;9.90;70.85;96428.13;5101105;27;19924;-59
2024/01/02 12:34:26;;;;;;;;;;;;;;;9.95;70.66;96433.31;5098503;28;19966;-59
2024/01/02 12:37:24;;;;;;;;;;;;;;;10.00;70.57;96426.06;5100893;27;19919;-59
2024/01/02 12:40:13;;;;;;;;;;;;;;;9.84;71.56;96424.06;5103915;27;19928;-60
2024/01/02 12:43:02;;;;;;;;;;;;;;;10.05;71.02;96417.69;5106440;27;19963;-60
2024/01/02 12:45:52;;;;;;;;;;;;;;;9.92;71.90;96409.59;5102776;28;19924;-60
2024/01/02 12:48:45;;;;;;;;;;;;;;;9.91;72.37;96413.44;5092479;27;19938;-59
2024/01/02 12:51:38;;;;;;;;;;;;;;;10.05;71.71;96404.91;5104457;28;19932;-59
2024/01/02 12:54:26;;;;;;;;;;;;;;;9.95;72.28;96413.53;5102742;28;20272;-59
2024/01/02 12:57:14;;;;;;;;;;;;;;;10.00;72.69;96409.78;5103363;28;19976;-59
2024/01/02 13:00:05;;;;;;;;;;;;;;;9.79;73.19;96405.31;5099667;28;19926;-59
2024/01/02 13:02:53;;;;;;;;;;;;;;;9.67;73.33;96414.28;5100956;28;19931;-60
2024/01/02 13:05:41;;;;;;;;;;;;;;;9.62;73.89;96408.28;5104154;28;20011;-59
2024/01/02 13:08:30;;;;;;;;;;;;;;;9.61;74.32;96404.81;5093489;28;19927;-59
2024/01/02 13:11:21;;;;;;;;;;;;;;;9.68;74.12;96412.34;5108512;28;19999;-59
2024/01/02 13:14:09;;;;;;;;;;;;;;;9.66;73.92;96410.00;5108913;28;20034;-59
2024/01/02 13:16:59;;;;;;;;;;;;;;;9.62;74.40;96408.28;5093249;28;19934;-59
2024/01/02 13:19:47;;;;;;;;;;;;;;;9.53;75.28;96404.91;5104034;27;19935;-59
2024/01/02 13:22:36;;;;;;;;;;;;;;;9.45;75.23;96396.56;5091180;28;19928;-59
2024/01/02 13:25:25;;;;;;;;;;;;;;;9.63;74.88;96402.53;5099502;27;20049;-60
2024/01/02 13:28:18;;;;;;;;;;;;;;;9.61;75.16;96396.66;5107573;28;19932;-60
2024/01/02 13:31:07;;;;;;;;;;;;;;;9.63;74.32;96393.59;5110477;27;19932;-60
2024/01/02 13:33:56;;;;;;;;;;;;;;;9.68;74.63;96388.72;5104298;27;19932;-60
2024/01/02 13:36:45;;;;;;;;;;;;;;;9.80;74.56;96379.81;5108720;27;19946;-60
2024/01/02 13:39:34;;;;;;;;;;;;;;;9.67;74.76;96375.53;5108284;28;19920;-60
2024/01/02 13:42:27;;;;;;;;;;;;;;;9.76;74.14;96376.19;5109598;28;19932;-59
2024/01/02 13:45:22;;;;;;;;;;;;;;;9.94;73.51;96366.63;5107046;27;20023;-60
2024/01/02 13:48:16;;;;;;;;;;;;;;;10.13;73.15;96365.22;5106137;27;19919;-60
2024/01/02 13:51:05;;;;;;;;;;;;;;;10.13;72.75;96363.28;5110328;27;19931;-60
2024/01/02 13:53:53;;;;;;;;;;;;;;;10.03;73.28;96374.63;5106630;27;19920;-60
2024/01/02 13:56:47;;;;;;;;;;;;;;;10.21;72.86;96372.41;5105812;27;19932;-60
2024/01/02 13:59:37;;;;;;;;;;;;;;;10.13;73.57;96368.72;5108574;27;20009;-60
2024/01/02 14:02:27;;;;;;;;;;;;;;;9.96;73.88;96367.09;5108503;27;19927;-60
2024/01/02 14:05:16;;;;;;;;;;;;;;;10.07;73.86;96361.19;5103339;28;20345;-59
2024/01/02 14:08:04;;;;;;;;;;;;;;;9.99;74.25;96365.59;5107171;28;20376;-60
2024/01/02 14:10:52;;;;;;;;;;;;;;;9.68;74.83;96363.53;5105561;28;19932;-60
2024/01/02 14:13:42;;;;;;;;;;;;;;;9.94;74.57;96357.69;5104939;28;19920;-63
2024/01/02 14:16:31;;;;;;;;;;;;;;;9.84;75.28;96358.97;5105820;27;19974;-71
2024/01/02 14:19:19;;;;;;;;;;;;;;;9.95;75.16;96349.22;5108698;27;19920;-59
2024/01/02 14:22:09;;;;;;;;;;;;;;;9.88;75.47;96342.81;5101252;28;19920;-59
2024/01/02 14:25:02;;;;;;;;;;;;;;;9.97;74.94;96343.47;5103110;27;20506;-60
2024/01/02 14:27:56;;;;;;;;;;;;;;;9.87;75.28;96342.03;5107369;28;19920;-60
2024/01/02 14:30:51;;;;;;;;;;;;;;;9.81;75.18;96342.63;5104255;27;19927;-60
2024/01/02 14:33:54;;;;;;;;;;;;;;;9.72;75.43;96340.03;5103716;27;19920;-60
2024/01/02 14:36:53;;;;;;;;;;;;;;;9.64;75.58;96339.06;5078394;28;20920;-60
2024/01/02 14:39:57;;;;;;;;;;;;;;;9.62;75.95;96333.16;5084259;28;20391;-60
2024/01/02 14:43:05;;;;;;;;;;;;;;;9.73;75.81;96327.25;5089086;28;20269;-60
2024/01/02 14:46:01;;;;;;;;;;;;;;;9.79;75.86;96336.72;5090426;28;19924;-60
2024/01/02 14:48:56;;;;;;;;;;;;;;;9.86;75.73;96336.94;5092229;28;19927;-60
2024/01/02 14:51:46;;;;;;;;;;;;;;;9.88;75.70;96331.97;5087584;28;19923;-60
2024/01/02 14:54:39;;;;;;;;;;;;;;;9.66;76.46;96341.41;5089044;28;19932;-60